sensor_id;sensor_type;location;lat;lon;timestamp;P1;durP1;ratioP1;P2;durP2;ratioP2
42420;SDS011;28063;48.140;11.588;2024-02-26T00:01:56;1.13;;;0.90;;
42420;SDS011;28063;48.140;11.588;2024-02-26T00:04:22;0.80;;;0.80;;
42420;SDS011;28063;48.140;11.588;2024-02-26T00:06:48;1.20;;;0.75;;
42420;SDS011;28063;48.140;11.588;2024-02-26T00:09:16;1.40;;;1.00;;
42420;SDS011;28063;48.140;11.588;2024-02-26T00:11:42;2.03;;;0.90;;
42420;SDS011;28063;48.140;11.588;2024-02-26T00:14:08;0.98;;;0.90;;
42420;SDS011;28063;48.140;11.588;2024-02-26T00:16:34;1.33;;;0.82;;
42420;SDS011;28063;48.140;11.588;2024-02-26T00:19:00;0.47;;;0.47;;
42420;SDS011;28063;48.140;11.588;2024-02-26T00:21:27;0.60;;;0.50;;
42420;SDS011;28063;48.140;11.588;2024-02-26T00:23:54;0.50;;;0.50;;
42420;SDS011;28063;48.140;11.588;2024-02-26T00:26:20;0.85;;;0.60;;
42420;SDS011;28063;48.140;11.588;2024-02-26T00:28:46;1.20;;;0.90;;
42420;SDS011;28063;48.140;11.588;2024-02-26T00:31:12;0.88;;;0.60;;
42420;SDS011;28063;48.140;11.588;2024-02-26T00:33:38;1.73;;;0.90;;
42420;SDS011;28063;48.140;11.588;2024-02-26T00:36:04;2.35;;;0.93;;
42420;SDS011;28063;48.140;11.588;2024-02-26T00:38:30;0.93;;;0.80;;
42420;SDS011;28063;48.140;11.588;2024-02-26T00:40:56;0.77;;;0.60;;
42420;SDS011;28063;48.140;11.588;2024-02-26T00:43:23;1.33;;;0.98;;
42420;SDS011;28063;48.140;11.588;2024-02-26T00:45:49;0.93;;;0.75;;
42420;SDS011;28063;48.140;11.588;2024-02-26T00:48:16;1.60;;;0.98;;
42420;SDS011;28063;48.140;11.588;2024-02-26T00:50:44;1.58;;;1.20;;
42420;SDS011;28063;48.140;11.588;2024-02-26T00:53:10;1.73;;;1.30;;
42420;SDS011;28063;48.140;11.588;2024-02-26T00:55:36;1.33;;;0.88;;
42420;SDS011;28063;48.140;11.588;2024-02-26T00:58:02;1.17;;;1.08;;
42420;SDS011;28063;48.140;11.588;2024-02-26T01:00:28;1.48;;;1.17;;
42420;SDS011;28063;48.140;11.588;2024-02-26T01:02:54;1.83;;;1.02;;
42420;SDS011;28063;48.140;11.588;2024-02-26T01:05:21;1.38;;;1.00;;
42420;SDS011;28063;48.140;11.588;2024-02-26T01:07:47;1.33;;;0.70;;
42420;SDS011;28063;48.140;11.588;2024-02-26T01:10:13;1.10;;;0.82;;
42420;SDS011;28063;48.140;11.588;2024-02-26T01:12:39;1.10;;;0.73;;
42420;SDS011;28063;48.140;11.588;2024-02-26T01:15:05;1.05;;;0.80;;
42420;SDS011;28063;48.140;11.588;2024-02-26T01:17:32;0.98;;;0.75;;
42420;SDS011;28063;48.140;11.588;2024-02-26T01:19:58;1.05;;;0.90;;
42420;SDS011;28063;48.140;11.588;2024-02-26T01:22:24;1.08;;;0.63;;
42420;SDS011;28063;48.140;11.588;2024-02-26T01:24:50;0.73;;;0.73;;
42420;SDS011;28063;48.140;11.588;2024-02-26T01:27:16;0.70;;;0.70;;
42420;SDS011;28063;48.140;11.588;2024-02-26T01:29:42;2.15;;;0.70;;
42420;SDS011;28063;48.140;11.588;2024-02-26T01:32:09;0.70;;;0.70;;
42420;SDS011;28063;48.140;11.588;2024-02-26T01:34:35;1.20;;;0.73;;
42420;SDS011;28063;48.140;11.588;2024-02-26T01:37:02;1.25;;;0.68;;
42420;SDS011;28063;48.140;11.588;2024-02-26T01:39:28;1.13;;;0.90;;
42420;SDS011;28063;48.140;11.588;2024-02-26T01:41:55;4.38;;;1.05;;
42420;SDS011;28063;48.140;11.588;2024-02-26T01:44:21;1.10;;;0.80;;
42420;SDS011;28063;48.140;11.588;2024-02-26T01:46:47;1.33;;;1.00;;
42420;SDS011;28063;48.140;11.588;2024-02-26T01:49:14;0.88;;;0.60;;
42420;SDS011;28063;48.140;11.588;2024-02-26T01:51:40;1.90;;;0.98;;
42420;SDS011;28063;48.140;11.588;2024-02-26T01:54:07;0.75;;;0.73;;
42420;SDS011;28063;48.140;11.588;2024-02-26T01:56:33;1.13;;;0.80;;
42420;SDS011;28063;48.140;11.588;2024-02-26T01:59:01;0.80;;;0.70;;
42420;SDS011;28063;48.140;11.588;2024-02-26T02:01:27;0.88;;;0.88;;
42420;SDS011;28063;48.140;11.588;2024-02-26T02:03:58;0.70;;;0.70;;
42420;SDS011;28063;48.140;11.588;2024-02-26T02:06:24;0.75;;;0.75;;
42420;SDS011;28063;48.140;11.588;2024-02-26T02:08:50;0.98;;;0.88;;
42420;SDS011;28063;48.140;11.588;2024-02-26T02:11:16;0.60;;;0.52;;
42420;SDS011;28063;48.140;11.588;2024-02-26T02:13:43;0.82;;;0.57;;
42420;SDS011;28063;48.140;11.588;2024-02-26T02:16:09;1.00;;;0.80;;
42420;SDS011;28063;48.140;11.588;2024-02-26T02:18:35;0.77;;;0.50;;
42420;SDS011;28063;48.140;11.588;2024-02-26T02:21:01;1.05;;;0.93;;
42420;SDS011;28063;48.140;11.588;2024-02-26T02:23:27;0.98;;;0.70;;
42420;SDS011;28063;48.140;11.588;2024-02-26T02:25:53;0.68;;;0.50;;
42420;SDS011;28063;48.140;11.588;2024-02-26T02:28:22;0.95;;;0.50;;
42420;SDS011;28063;48.140;11.588;2024-02-26T02:30:49;0.60;;;0.60;;
42420;SDS011;28063;48.140;11.588;2024-02-26T02:33:15;0.70;;;0.68;;
42420;SDS011;28063;48.140;11.588;2024-02-26T02:35:42;0.77;;;0.50;;
42420;SDS011;28063;48.140;11.588;2024-02-26T02:38:08;1.27;;;1.00;;
42420;SDS011;28063;48.140;11.588;2024-02-26T02:40:34;1.02;;;0.73;;
42420;SDS011;28063;48.140;11.588;2024-02-26T02:43:00;0.80;;;0.80;;
42420;SDS011;28063;48.140;11.588;2024-02-26T02:45:27;2.97;;;0.90;;
42420;SDS011;28063;48.140;11.588;2024-02-26T02:47:53;0.75;;;0.65;;
42420;SDS011;28063;48.140;11.588;2024-02-26T02:50:19;3.65;;;1.63;;
42420;SDS011;28063;48.140;11.588;2024-02-26T02:52:45;0.73;;;0.60;;
42420;SDS011;28063;48.140;11.588;2024-02-26T02:55:13;0.85;;;0.85;;
42420;SDS011;28063;48.140;11.588;2024-02-26T02:57:39;0.93;;;0.65;;
42420;SDS011;28063;48.140;11.588;2024-02-26T03:00:07;0.60;;;0.60;;
42420;SDS011;28063;48.140;11.588;2024-02-26T03:02:33;0.50;;;0.50;;
42420;SDS011;28063;48.140;11.588;2024-02-26T03:05:01;1.00;;;0.70;;
42420;SDS011;28063;48.140;11.588;2024-02-26T03:07:27;1.13;;;0.82;;
42420;SDS011;28063;48.140;11.588;2024-02-26T03:09:54;1.50;;;0.80;;
42420;SDS011;28063;48.140;11.588;2024-02-26T03:12:20;0.93;;;0.70;;
42420;SDS011;28063;48.140;11.588;2024-02-26T03:14:46;0.75;;;0.70;;
42420;SDS011;28063;48.140;11.588;2024-02-26T03:17:13;1.45;;;0.90;;
42420;SDS011;28063;48.140;11.588;2024-02-26T03:19:39;1.67;;;1.10;;
42420;SDS011;28063;48.140;11.588;2024-02-26T03:22:05;1.17;;;0.73;;
42420;SDS011;28063;48.140;11.588;2024-02-26T03:24:31;1.33;;;0.70;;
42420;SDS011;28063;48.140;11.588;2024-02-26T03:26:57;0.70;;;0.68;;
42420;SDS011;28063;48.140;11.588;2024-02-26T03:29:23;0.60;;;0.60;;
42420;SDS011;28063;48.140;11.588;2024-02-26T03:31:49;0.80;;;0.70;;
42420;SDS011;28063;48.140;11.588;2024-02-26T03:34:15;0.70;;;0.50;;
42420;SDS011;28063;48.140;11.588;2024-02-26T03:36:42;0.75;;;0.40;;
42420;SDS011;28063;48.140;11.588;2024-02-26T03:39:08;0.60;;;0.60;;
42420;SDS011;28063;48.140;11.588;2024-02-26T03:41:34;0.63;;;0.50;;
42420;SDS011;28063;48.140;11.588;2024-02-26T03:44:00;0.70;;;0.70;;
42420;SDS011;28063;48.140;11.588;2024-02-26T03:46:26;0.70;;;0.70;;
42420;SDS011;28063;48.140;11.588;2024-02-26T03:48:53;0.60;;;0.60;;
42420;SDS011;28063;48.140;11.588;2024-02-26T03:51:19;0.85;;;0.80;;
42420;SDS011;28063;48.140;11.588;2024-02-26T03:53:45;0.63;;;0.43;;
42420;SDS011;28063;48.140;11.588;2024-02-26T03:56:11;0.55;;;0.43;;
42420;SDS011;28063;48.140;11.588;2024-02-26T03:58:41;0.68;;;0.60;;
42420;SDS011;28063;48.140;11.588;2024-02-26T04:01:07;0.38;;;0.38;;
42420;SDS011;28063;48.140;11.588;2024-02-26T04:03:34;0.43;;;0.40;;
42420;SDS011;28063;48.140;11.588;2024-02-26T04:06:00;0.90;;;0.45;;
42420;SDS011;28063;48.140;11.588;2024-02-26T04:08:26;0.60;;;0.60;;
42420;SDS011;28063;48.140;11.588;2024-02-26T04:10:52;1.00;;;0.50;;
42420;SDS011;28063;48.140;11.588;2024-02-26T04:13:19;0.68;;;0.43;;
42420;SDS011;28063;48.140;11.588;2024-02-26T04:15:45;1.33;;;0.60;;
42420;SDS011;28063;48.140;11.588;2024-02-26T04:18:12;0.57;;;0.57;;
42420;SDS011;28063;48.140;11.588;2024-02-26T04:20:39;0.38;;;0.38;;
42420;SDS011;28063;48.140;11.588;2024-02-26T04:23:07;0.60;;;0.60;;
42420;SDS011;28063;48.140;11.588;2024-02-26T04:25:33;0.57;;;0.47;;
42420;SDS011;28063;48.140;11.588;2024-02-26T04:27:59;0.85;;;0.55;;
42420;SDS011;28063;48.140;11.588;2024-02-26T04:30:25;0.50;;;0.50;;
42420;SDS011;28063;48.140;11.588;2024-02-26T04:32:51;0.52;;;0.40;;
42420;SDS011;28063;48.140;11.588;2024-02-26T04:35:17;0.63;;;0.50;;
42420;SDS011;28063;48.140;11.588;2024-02-26T04:37:43;1.23;;;0.60;;
42420;SDS011;28063;48.140;11.588;2024-02-26T04:40:09;0.60;;;0.60;;
42420;SDS011;28063;48.140;11.588;2024-02-26T04:42:35;0.73;;;0.70;;
42420;SDS011;28063;48.140;11.588;2024-02-26T04:45:02;0.50;;;0.50;;
42420;SDS011;28063;48.140;11.588;2024-02-26T04:47:28;0.65;;;0.50;;
42420;SDS011;28063;48.140;11.588;2024-02-26T04:49:55;0.40;;;0.40;;
42420;SDS011;28063;48.140;11.588;2024-02-26T04:52:21;0.55;;;0.52;;
42420;SDS011;28063;48.140;11.588;2024-02-26T04:54:47;2.10;;;0.75;;
42420;SDS011;28063;48.140;11.588;2024-02-26T04:57:13;0.70;;;0.52;;
42420;SDS011;28063;48.140;11.588;2024-02-26T04:59:39;0.43;;;0.40;;
42420;SDS011;28063;48.140;11.588;2024-02-26T05:02:07;0.60;;;0.40;;
42420;SDS011;28063;48.140;11.588;2024-02-26T05:04:33;0.70;;;0.52;;
42420;SDS011;28063;48.140;11.588;2024-02-26T05:06:59;1.17;;;0.50;;
42420;SDS011;28063;48.140;11.588;2024-02-26T05:09:25;0.60;;;0.50;;
42420;SDS011;28063;48.140;11.588;2024-02-26T05:11:51;0.40;;;0.40;;
42420;SDS011;28063;48.140;11.588;2024-02-26T05:14:17;0.55;;;0.50;;
42420;SDS011;28063;48.140;11.588;2024-02-26T05:16:43;0.50;;;0.45;;
42420;SDS011;28063;48.140;11.588;2024-02-26T05:19:10;0.22;;;0.22;;
42420;SDS011;28063;48.140;11.588;2024-02-26T05:21:37;0.30;;;0.30;;
42420;SDS011;28063;48.140;11.588;2024-02-26T05:24:03;1.08;;;0.40;;
42420;SDS011;28063;48.140;11.588;2024-02-26T05:26:29;0.38;;;0.38;;
42420;SDS011;28063;48.140;11.588;2024-02-26T05:28:55;0.35;;;0.30;;
42420;SDS011;28063;48.140;11.588;2024-02-26T05:31:25;0.63;;;0.38;;
42420;SDS011;28063;48.140;11.588;2024-02-26T05:33:51;0.35;;;0.32;;
42420;SDS011;28063;48.140;11.588;2024-02-26T05:36:18;0.40;;;0.40;;
42420;SDS011;28063;48.140;11.588;2024-02-26T05:38:44;0.30;;;0.30;;
42420;SDS011;28063;48.140;11.588;2024-02-26T05:41:11;0.28;;;0.22;;
42420;SDS011;28063;48.140;11.588;2024-02-26T05:43:37;0.38;;;0.38;;
42420;SDS011;28063;48.140;11.588;2024-02-26T05:46:03;0.63;;;0.40;;
42420;SDS011;28063;48.140;11.588;2024-02-26T05:48:29;0.77;;;0.38;;
42420;SDS011;28063;48.140;11.588;2024-02-26T05:50:57;0.40;;;0.20;;
42420;SDS011;28063;48.140;11.588;2024-02-26T05:53:23;0.30;;;0.30;;
42420;SDS011;28063;48.140;11.588;2024-02-26T05:55:50;0.57;;;0.45;;
42420;SDS011;28063;48.140;11.588;2024-02-26T05:58:16;0.63;;;0.28;;
42420;SDS011;28063;48.140;11.588;2024-02-26T06:00:42;0.73;;;0.30;;
42420;SDS011;28063;48.140;11.588;2024-02-26T06:03:08;0.40;;;0.30;;
42420;SDS011;28063;48.140;11.588;2024-02-26T06:05:34;0.47;;;0.20;;
42420;SDS011;28063;48.140;11.588;2024-02-26T06:08:00;0.30;;;0.25;;
42420;SDS011;28063;48.140;11.588;2024-02-26T06:10:27;0.30;;;0.30;;
42420;SDS011;28063;48.140;11.588;2024-02-26T06:12:53;0.50;;;0.30;;
42420;SDS011;28063;48.140;11.588;2024-02-26T06:15:19;0.60;;;0.28;;
42420;SDS011;28063;48.140;11.588;2024-02-26T06:17:45;0.50;;;0.32;;
42420;SDS011;28063;48.140;11.588;2024-02-26T06:20:12;0.20;;;0.20;;
42420;SDS011;28063;48.140;11.588;2024-02-26T06:22:39;0.50;;;0.25;;
42420;SDS011;28063;48.140;11.588;2024-02-26T06:25:06;0.25;;;0.25;;
42420;SDS011;28063;48.140;11.588;2024-02-26T06:27:32;0.40;;;0.30;;
42420;SDS011;28063;48.140;11.588;2024-02-26T06:29:58;0.52;;;0.40;;
42420;SDS011;28063;48.140;11.588;2024-02-26T06:32:24;0.30;;;0.30;;
42420;SDS011;28063;48.140;11.588;2024-02-26T06:34:52;0.25;;;0.20;;
42420;SDS011;28063;48.140;11.588;2024-02-26T06:37:19;0.40;;;0.35;;
42420;SDS011;28063;48.140;11.588;2024-02-26T06:39:45;0.40;;;0.30;;
42420;SDS011;28063;48.140;11.588;2024-02-26T06:42:11;0.57;;;0.50;;
42420;SDS011;28063;48.140;11.588;2024-02-26T06:44:37;0.30;;;0.30;;
42420;SDS011;28063;48.140;11.588;2024-02-26T06:47:03;0.30;;;0.30;;
42420;SDS011;28063;48.140;11.588;2024-02-26T06:49:29;0.40;;;0.40;;
42420;SDS011;28063;48.140;11.588;2024-02-26T06:51:55;0.50;;;0.32;;
42420;SDS011;28063;48.140;11.588;2024-02-26T06:54:21;0.70;;;0.70;;
42420;SDS011;28063;48.140;11.588;2024-02-26T06:56:47;1.80;;;0.50;;
42420;SDS011;28063;48.140;11.588;2024-02-26T06:59:14;1.15;;;0.63;;
42420;SDS011;28063;48.140;11.588;2024-02-26T07:01:40;0.85;;;0.60;;
42420;SDS011;28063;48.140;11.588;2024-02-26T07:04:07;2.47;;;0.95;;
42420;SDS011;28063;48.140;11.588;2024-02-26T07:06:33;1.73;;;0.80;;
42420;SDS011;28063;48.140;11.588;2024-02-26T07:08:59;2.40;;;0.77;;
42420;SDS011;28063;48.140;11.588;2024-02-26T07:11:25;1.35;;;0.88;;
42420;SDS011;28063;48.140;11.588;2024-02-26T07:13:51;1.65;;;1.02;;
42420;SDS011;28063;48.140;11.588;2024-02-26T07:16:17;1.55;;;1.10;;
42420;SDS011;28063;48.140;11.588;2024-02-26T07:18:43;2.38;;;1.30;;
42420;SDS011;28063;48.140;11.588;2024-02-26T07:21:09;1.77;;;1.00;;
42420;SDS011;28063;48.140;11.588;2024-02-26T07:23:35;1.92;;;1.10;;
42420;SDS011;28063;48.140;11.588;2024-02-26T07:26:01;1.75;;;1.20;;
42420;SDS011;28063;48.140;11.588;2024-02-26T07:28:27;3.45;;;1.02;;
42420;SDS011;28063;48.140;11.588;2024-02-26T07:30:53;0.95;;;0.95;;
42420;SDS011;28063;48.140;11.588;2024-02-26T07:33:19;1.58;;;0.98;;
42420;SDS011;28063;48.140;11.588;2024-02-26T07:35:45;1.52;;;1.15;;
42420;SDS011;28063;48.140;11.588;2024-02-26T07:38:11;0.93;;;0.90;;
42420;SDS011;28063;48.140;11.588;2024-02-26T07:40:38;1.33;;;1.00;;
42420;SDS011;28063;48.140;11.588;2024-02-26T07:43:04;1.35;;;1.10;;
42420;SDS011;28063;48.140;11.588;2024-02-26T07:45:30;4.07;;;1.65;;
42420;SDS011;28063;48.140;11.588;2024-02-26T07:47:56;4.35;;;1.80;;
42420;SDS011;28063;48.140;11.588;2024-02-26T07:50:23;2.85;;;1.50;;
42420;SDS011;28063;48.140;11.588;2024-02-26T07:52:49;2.63;;;1.77;;
42420;SDS011;28063;48.140;11.588;2024-02-26T07:55:16;2.35;;;1.40;;
42420;SDS011;28063;48.140;11.588;2024-02-26T07:57:42;1.92;;;1.35;;
42420;SDS011;28063;48.140;11.588;2024-02-26T08:00:09;1.63;;;1.10;;
42420;SDS011;28063;48.140;11.588;2024-02-26T08:02:38;1.65;;;1.20;;
42420;SDS011;28063;48.140;11.588;2024-02-26T08:05:04;1.08;;;0.93;;
42420;SDS011;28063;48.140;11.588;2024-02-26T08:07:30;1.85;;;0.82;;
42420;SDS011;28063;48.140;11.588;2024-02-26T08:09:59;1.45;;;1.10;;
42420;SDS011;28063;48.140;11.588;2024-02-26T08:12:25;1.83;;;1.00;;
42420;SDS011;28063;48.140;11.588;2024-02-26T08:14:51;2.58;;;1.40;;
42420;SDS011;28063;48.140;11.588;2024-02-26T08:17:17;1.15;;;1.05;;
42420;SDS011;28063;48.140;11.588;2024-02-26T08:19:43;1.20;;;1.10;;
42420;SDS011;28063;48.140;11.588;2024-02-26T08:22:09;2.47;;;1.40;;
42420;SDS011;28063;48.140;11.588;2024-02-26T08:24:41;1.98;;;1.10;;
42420;SDS011;28063;48.140;11.588;2024-02-26T08:27:07;2.05;;;1.10;;
42420;SDS011;28063;48.140;11.588;2024-02-26T08:29:33;1.73;;;1.08;;
42420;SDS011;28063;48.140;11.588;2024-02-26T08:31:59;1.52;;;1.20;;
42420;SDS011;28063;48.140;11.588;2024-02-26T08:34:25;2.75;;;1.38;;
42420;SDS011;28063;48.140;11.588;2024-02-26T08:36:52;1.83;;;1.10;;
42420;SDS011;28063;48.140;11.588;2024-02-26T08:39:19;1.58;;;1.45;;
42420;SDS011;28063;48.140;11.588;2024-02-26T08:41:45;1.42;;;1.10;;
42420;SDS011;28063;48.140;11.588;2024-02-26T08:44:11;1.45;;;1.30;;
42420;SDS011;28063;48.140;11.588;2024-02-26T08:46:38;0.85;;;0.75;;
42420;SDS011;28063;48.140;11.588;2024-02-26T08:49:04;1.13;;;1.00;;
42420;SDS011;28063;48.140;11.588;2024-02-26T08:51:30;1.15;;;0.88;;
42420;SDS011;28063;48.140;11.588;2024-02-26T08:53:59;1.33;;;0.98;;
42420;SDS011;28063;48.140;11.588;2024-02-26T08:56:25;3.33;;;1.25;;
42420;SDS011;28063;48.140;11.588;2024-02-26T08:58:52;4.47;;;1.50;;
42420;SDS011;28063;48.140;11.588;2024-02-26T09:01:21;2.75;;;1.50;;
42420;SDS011;28063;48.140;11.588;2024-02-26T09:03:48;2.92;;;1.13;;
42420;SDS011;28063;48.140;11.588;2024-02-26T09:06:15;1.90;;;1.10;;
42420;SDS011;28063;48.140;11.588;2024-02-26T09:08:41;0.85;;;0.80;;
42420;SDS011;28063;48.140;11.588;2024-02-26T09:11:07;1.45;;;1.08;;
42420;SDS011;28063;48.140;11.588;2024-02-26T09:13:35;2.28;;;1.10;;
42420;SDS011;28063;48.140;11.588;2024-02-26T09:16:01;1.95;;;1.40;;
42420;SDS011;28063;48.140;11.588;2024-02-26T09:18:27;3.60;;;1.95;;
42420;SDS011;28063;48.140;11.588;2024-02-26T09:20:54;2.05;;;1.75;;
42420;SDS011;28063;48.140;11.588;2024-02-26T09:23:20;3.08;;;1.92;;
42420;SDS011;28063;48.140;11.588;2024-02-26T09:25:46;2.78;;;1.60;;
42420;SDS011;28063;48.140;11.588;2024-02-26T09:28:12;2.47;;;1.40;;
42420;SDS011;28063;48.140;11.588;2024-02-26T09:30:40;1.67;;;1.33;;
42420;SDS011;28063;48.140;11.588;2024-02-26T09:33:06;2.45;;;1.60;;
42420;SDS011;28063;48.140;11.588;2024-02-26T09:35:33;1.75;;;1.40;;
42420;SDS011;28063;48.140;11.588;2024-02-26T09:37:59;1.98;;;1.30;;
42420;SDS011;28063;48.140;11.588;2024-02-26T09:40:25;1.30;;;1.20;;
42420;SDS011;28063;48.140;11.588;2024-02-26T09:42:53;0.70;;;0.70;;
42420;SDS011;28063;48.140;11.588;2024-02-26T09:45:22;1.67;;;1.20;;
42420;SDS011;28063;48.140;11.588;2024-02-26T09:47:50;0.98;;;0.85;;
42420;SDS011;28063;48.140;11.588;2024-02-26T09:50:17;1.15;;;0.90;;
42420;SDS011;28063;48.140;11.588;2024-02-26T09:52:47;1.15;;;1.00;;
42420;SDS011;28063;48.140;11.588;2024-02-26T09:55:13;1.50;;;1.25;;
42420;SDS011;28063;48.140;11.588;2024-02-26T09:57:41;2.60;;;1.35;;
42420;SDS011;28063;48.140;11.588;2024-02-26T10:00:10;4.32;;;1.75;;
42420;SDS011;28063;48.140;11.588;2024-02-26T10:02:39;3.08;;;1.58;;
42420;SDS011;28063;48.140;11.588;2024-02-26T10:05:05;2.92;;;1.60;;
42420;SDS011;28063;48.140;11.588;2024-02-26T10:07:33;3.03;;;2.17;;
42420;SDS011;28063;48.140;11.588;2024-02-26T10:09:59;3.30;;;1.98;;
42420;SDS011;28063;48.140;11.588;2024-02-26T10:12:26;4.53;;;2.00;;
42420;SDS011;28063;48.140;11.588;2024-02-26T10:14:53;2.08;;;1.42;;
42420;SDS011;28063;48.140;11.588;2024-02-26T10:17:19;3.13;;;1.20;;
42420;SDS011;28063;48.140;11.588;2024-02-26T10:19:45;2.15;;;1.20;;
42420;SDS011;28063;48.140;11.588;2024-02-26T10:22:12;1.55;;;0.90;;
42420;SDS011;28063;48.140;11.588;2024-02-26T10:24:38;3.30;;;1.65;;
42420;SDS011;28063;48.140;11.588;2024-02-26T10:27:04;1.58;;;1.10;;
42420;SDS011;28063;48.140;11.588;2024-02-26T10:29:31;1.48;;;0.93;;
42420;SDS011;28063;48.140;11.588;2024-02-26T10:31:57;1.50;;;1.10;;
42420;SDS011;28063;48.140;11.588;2024-02-26T10:34:23;3.08;;;2.00;;
42420;SDS011;28063;48.140;11.588;2024-02-26T10:36:49;0.88;;;0.73;;
42420;SDS011;28063;48.140;11.588;2024-02-26T10:39:16;1.73;;;0.95;;
42420;SDS011;28063;48.140;11.588;2024-02-26T10:41:42;1.98;;;0.85;;
42420;SDS011;28063;48.140;11.588;2024-02-26T10:44:11;1.08;;;0.88;;
42420;SDS011;28063;48.140;11.588;2024-02-26T10:46:38;2.63;;;0.80;;
42420;SDS011;28063;48.140;11.588;2024-02-26T10:49:04;1.27;;;0.68;;
42420;SDS011;28063;48.140;11.588;2024-02-26T10:51:32;1.08;;;0.80;;
42420;SDS011;28063;48.140;11.588;2024-02-26T10:54:00;1.05;;;0.80;;
42420;SDS011;28063;48.140;11.588;2024-02-26T10:56:30;1.00;;;0.82;;
42420;SDS011;28063;48.140;11.588;2024-02-26T10:58:59;0.95;;;0.70;;
42420;SDS011;28063;48.140;11.588;2024-02-26T11:01:25;0.40;;;0.40;;
42420;SDS011;28063;48.140;11.588;2024-02-26T11:03:55;2.20;;;0.73;;
42420;SDS011;28063;48.140;11.588;2024-02-26T11:06:22;0.80;;;0.70;;
42420;SDS011;28063;48.140;11.588;2024-02-26T11:08:48;0.50;;;0.50;;
42420;SDS011;28063;48.140;11.588;2024-02-26T11:11:17;0.52;;;0.52;;
42420;SDS011;28063;48.140;11.588;2024-02-26T11:13:44;1.58;;;0.77;;
42420;SDS011;28063;48.140;11.588;2024-02-26T11:16:14;0.73;;;0.60;;
42420;SDS011;28063;48.140;11.588;2024-02-26T11:18:41;0.70;;;0.43;;
42420;SDS011;28063;48.140;11.588;2024-02-26T11:21:07;1.88;;;0.40;;
42420;SDS011;28063;48.140;11.588;2024-02-26T11:23:34;0.60;;;0.60;;
42420;SDS011;28063;48.140;11.588;2024-02-26T11:26:02;0.55;;;0.50;;
42420;SDS011;28063;48.140;11.588;2024-02-26T11:28:32;0.73;;;0.73;;
42420;SDS011;28063;48.140;11.588;2024-02-26T11:30:58;1.27;;;0.70;;
42420;SDS011;28063;48.140;11.588;2024-02-26T11:33:25;0.80;;;0.80;;
42420;SDS011;28063;48.140;11.588;2024-02-26T11:35:51;0.95;;;0.68;;
42420;SDS011;28063;48.140;11.588;2024-02-26T11:38:20;0.65;;;0.65;;
42420;SDS011;28063;48.140;11.588;2024-02-26T11:40:47;1.35;;;0.65;;
42420;SDS011;28063;48.140;11.588;2024-02-26T11:43:13;1.20;;;0.57;;
42420;SDS011;28063;48.140;11.588;2024-02-26T11:48:15;0.90;;;0.80;;
42420;SDS011;28063;48.140;11.588;2024-02-26T11:50:45;0.60;;;0.60;;
42420;SDS011;28063;48.140;11.588;2024-02-26T11:53:28;0.40;;;0.40;;
42420;SDS011;28063;48.140;11.588;2024-02-26T11:58:41;1.33;;;1.13;;
42420;SDS011;28063;48.140;11.588;2024-02-26T12:03:53;0.73;;;0.60;;
42420;SDS011;28063;48.140;11.588;2024-02-26T12:06:21;1.13;;;0.75;;
42420;SDS011;28063;48.140;11.588;2024-02-26T12:08:47;1.50;;;0.88;;
42420;SDS011;28063;48.140;11.588;2024-02-26T12:11:16;1.05;;;0.70;;
42420;SDS011;28063;48.140;11.588;2024-02-26T12:13:42;0.65;;;0.57;;
42420;SDS011;28063;48.140;11.588;2024-02-26T12:16:21;0.70;;;0.70;;
42420;SDS011;28063;48.140;11.588;2024-02-26T12:19:00;1.08;;;0.80;;
42420;SDS011;28063;48.140;11.588;2024-02-26T12:21:27;1.30;;;0.88;;
42420;SDS011;28063;48.140;11.588;2024-02-26T12:23:53;2.28;;;1.05;;
42420;SDS011;28063;48.140;11.588;2024-02-26T12:26:19;1.08;;;0.68;;
42420;SDS011;28063;48.140;11.588;2024-02-26T12:28:46;0.77;;;0.77;;
42420;SDS011;28063;48.140;11.588;2024-02-26T12:31:12;0.98;;;0.80;;
42420;SDS011;28063;48.140;11.588;2024-02-26T12:33:39;2.15;;;0.70;;
42420;SDS011;28063;48.140;11.588;2024-02-26T12:36:05;0.80;;;0.52;;
42420;SDS011;28063;48.140;11.588;2024-02-26T12:38:32;0.35;;;0.35;;
42420;SDS011;28063;48.140;11.588;2024-02-26T12:41:00;0.38;;;0.38;;
42420;SDS011;28063;48.140;11.588;2024-02-26T12:43:26;0.95;;;0.73;;
42420;SDS011;28063;48.140;11.588;2024-02-26T12:45:52;0.52;;;0.40;;
42420;SDS011;28063;48.140;11.588;2024-02-26T12:48:18;1.05;;;0.40;;
42420;SDS011;28063;48.140;11.588;2024-02-26T12:50:46;0.38;;;0.38;;
42420;SDS011;28063;48.140;11.588;2024-02-26T12:53:12;1.52;;;0.65;;
42420;SDS011;28063;48.140;11.588;2024-02-26T12:55:38;0.70;;;0.70;;
42420;SDS011;28063;48.140;11.588;2024-02-26T12:58:05;2.33;;;0.60;;
42420;SDS011;28063;48.140;11.588;2024-02-26T13:00:31;1.13;;;0.70;;
42420;SDS011;28063;48.140;11.588;2024-02-26T13:02:59;1.08;;;0.93;;
42420;SDS011;28063;48.140;11.588;2024-02-26T13:05:25;2.47;;;0.70;;
42420;SDS011;28063;48.140;11.588;2024-02-26T13:07:51;1.40;;;0.90;;
42420;SDS011;28063;48.140;11.588;2024-02-26T13:10:20;1.05;;;0.70;;
42420;SDS011;28063;48.140;11.588;2024-02-26T13:12:47;0.82;;;0.77;;
42420;SDS011;28063;48.140;11.588;2024-02-26T13:15:16;1.30;;;1.05;;
42420;SDS011;28063;48.140;11.588;2024-02-26T13:17:43;1.23;;;1.10;;
42420;SDS011;28063;48.140;11.588;2024-02-26T13:20:09;2.50;;;1.33;;
42420;SDS011;28063;48.140;11.588;2024-02-26T13:22:36;1.98;;;1.30;;
42420;SDS011;28063;48.140;11.588;2024-02-26T13:25:02;1.63;;;1.20;;
42420;SDS011;28063;48.140;11.588;2024-02-26T13:27:28;1.50;;;1.25;;
42420;SDS011;28063;48.140;11.588;2024-02-26T13:30:04;3.38;;;1.17;;
42420;SDS011;28063;48.140;11.588;2024-02-26T13:32:33;2.03;;;1.08;;
42420;SDS011;28063;48.140;11.588;2024-02-26T13:35:10;3.40;;;1.17;;
42420;SDS011;28063;48.140;11.588;2024-02-26T13:37:36;0.95;;;0.88;;
42420;SDS011;28063;48.140;11.588;2024-02-26T13:40:06;0.82;;;0.73;;
42420;SDS011;28063;48.140;11.588;2024-02-26T13:42:33;0.65;;;0.65;;
42420;SDS011;28063;48.140;11.588;2024-02-26T13:44:59;0.75;;;0.65;;
42420;SDS011;28063;48.140;11.588;2024-02-26T13:47:25;0.57;;;0.57;;
42420;SDS011;28063;48.140;11.588;2024-02-26T13:49:51;1.77;;;0.70;;
42420;SDS011;28063;48.140;11.588;2024-02-26T13:52:18;1.75;;;0.80;;
42420;SDS011;28063;48.140;11.588;2024-02-26T13:54:45;1.52;;;0.45;;
42420;SDS011;28063;48.140;11.588;2024-02-26T13:57:11;0.43;;;0.43;;
42420;SDS011;28063;48.140;11.588;2024-02-26T13:59:38;0.75;;;0.55;;
42420;SDS011;28063;48.140;11.588;2024-02-26T14:02:07;0.50;;;0.50;;
42420;SDS011;28063;48.140;11.588;2024-02-26T14:04:37;0.70;;;0.70;;
42420;SDS011;28063;48.140;11.588;2024-02-26T14:07:03;2.42;;;0.80;;
42420;SDS011;28063;48.140;11.588;2024-02-26T14:09:29;0.85;;;0.70;;
42420;SDS011;28063;48.140;11.588;2024-02-26T14:11:57;1.55;;;0.73;;
42420;SDS011;28063;48.140;11.588;2024-02-26T14:14:23;0.88;;;0.88;;
42420;SDS011;28063;48.140;11.588;2024-02-26T14:16:49;1.52;;;1.42;;
42420;SDS011;28063;48.140;11.588;2024-02-26T14:19:15;2.45;;;1.35;;
42420;SDS011;28063;48.140;11.588;2024-02-26T14:21:41;1.40;;;1.23;;
42420;SDS011;28063;48.140;11.588;2024-02-26T14:24:07;4.28;;;1.30;;
42420;SDS011;28063;48.140;11.588;2024-02-26T14:26:33;1.48;;;1.30;;
42420;SDS011;28063;48.140;11.588;2024-02-26T14:28:59;3.38;;;1.02;;
42420;SDS011;28063;48.140;11.588;2024-02-26T14:31:25;2.15;;;1.10;;
42420;SDS011;28063;48.140;11.588;2024-02-26T14:33:51;1.88;;;1.30;;
42420;SDS011;28063;48.140;11.588;2024-02-26T14:36:19;1.77;;;1.00;;
42420;SDS011;28063;48.140;11.588;2024-02-26T14:38:46;2.10;;;1.38;;